createdAt,value
2018-01-24T00:03:16.378Z,101635.83
2018-01-24T00:03:40.199Z,101634.03
2018-01-24T00:04:03.941Z,101641.50
2018-01-24T00:04:27.681Z,101633.95
2018-01-24T00:04:51.427Z,101635.28
2018-01-24T00:05:15.164Z,101631.62
2018-01-24T00:05:38.970Z,101629.83
2018-01-24T00:06:02.692Z,101630.65
2018-01-24T00:06:26.424Z,101638.14
2018-01-24T00:06:50.155Z,101629.23
2018-01-24T00:07:13.666Z,101630.94
2018-01-24T00:07:37.422Z,101631.28
2018-01-24T00:08:01.170Z,101634.75
2018-01-24T00:08:24.632Z,101631.62
2018-01-24T00:08:48.358Z,101635.05
2018-01-24T00:09:12.107Z,101626.60
2018-01-24T00:09:35.545Z,101632.30
2018-01-24T00:09:58.976Z,101634.01
2018-01-24T00:10:22.710Z,101635.69
2018-01-24T00:10:46.555Z,101632.08
2018-01-24T00:11:10.304Z,101628.52
2018-01-24T00:11:34.037Z,101632.89
2018-01-24T00:11:57.506Z,101635.08
2018-01-24T00:12:21.243Z,101627.09
2018-01-24T00:12:44.993Z,101626.55
2018-01-24T00:13:08.711Z,101625.17
2018-01-24T00:13:32.465Z,101629.11
2018-01-24T00:13:56.183Z,101624.64
2018-01-24T00:14:19.985Z,101625.47
2018-01-24T00:14:43.428Z,101636.48
2018-01-24T00:15:07.171Z,101622.29
2018-01-24T00:15:31.001Z,101624.90
2018-01-24T00:15:55.010Z,101622.59
2018-01-24T00:16:19.035Z,101626.10
2018-01-24T00:16:43.079Z,101614.09
2018-01-24T00:17:07.157Z,101624.73
2018-01-24T00:17:30.883Z,101617.61
2018-01-24T00:17:54.642Z,101622.02
2018-01-24T00:18:18.375Z,101617.56
2018-01-24T00:18:42.138Z,101619.31
2018-01-24T00:19:05.703Z,101620.09
2018-01-24T00:19:29.447Z,101622.31
2018-01-24T00:19:53.174Z,101621.42
2018-01-24T00:20:16.928Z,101620.94
2018-01-24T00:20:40.996Z,101625.31
2018-01-24T00:21:05.007Z,101619.99
2018-01-24T00:21:28.578Z,101618.62
2018-01-24T00:21:52.316Z,101615.45
2018-01-24T00:22:16.122Z,101623.37
2018-01-24T00:22:39.860Z,101624.23
2018-01-24T00:23:03.873Z,101616.69
2018-01-24T00:23:27.811Z,101618.44
2018-01-24T00:23:51.835Z,101622.43
2018-01-24T00:24:15.865Z,101615.78
2018-01-24T00:24:39.896Z,101615.78
2018-01-24T00:25:03.921Z,101610.89
2018-01-24T00:25:27.372Z,101615.66
2018-01-24T00:25:51.099Z,101611.32
2018-01-24T00:26:14.839Z,101610.84
2018-01-24T00:26:38.846Z,101612.56
2018-01-24T00:27:02.869Z,101611.75
2018-01-24T00:27:26.874Z,101605.02
2018-01-24T00:27:50.324Z,101607.67
2018-01-24T00:28:14.079Z,101606.30
2018-01-24T00:28:37.821Z,101608.95
2018-01-24T00:29:01.868Z,101603.59
2018-01-24T00:29:25.326Z,101604.50
2018-01-24T00:29:48.891Z,101600.94
2018-01-24T00:30:12.668Z,101602.69
2018-01-24T00:30:36.104Z,101608.44
2018-01-24T00:30:59.839Z,101600.46
2018-01-24T00:31:23.288Z,101602.13
2018-01-24T00:31:47.009Z,101603.55
2018-01-24T00:32:10.732Z,101595.02
2018-01-24T00:32:34.763Z,101596.81
2018-01-24T00:32:58.774Z,101596.42
2018-01-24T00:33:22.800Z,101595.99
2018-01-24T00:33:46.241Z,101594.16
2018-01-24T00:34:10.021Z,101596.81
2018-01-24T00:34:33.814Z,101597.75
2018-01-24T00:34:57.557Z,101592.83
2018-01-24T00:35:21.316Z,101595.02
2018-01-24T00:35:45.069Z,101598.52
2018-01-24T00:36:08.804Z,101602.94
2018-01-24T00:36:32.600Z,101597.67
2018-01-24T00:36:56.037Z,101596.72
2018-01-24T00:37:19.764Z,101593.63
2018-01-24T00:37:43.499Z,101588.74
2018-01-24T00:38:07.219Z,101591.40
2018-01-24T00:38:30.951Z,101596.25
2018-01-24T00:38:54.722Z,101590.92
2018-01-24T00:39:17.823Z,101598.91
2018-01-24T00:39:41.557Z,101587.36
2018-01-24T00:40:05.661Z,101589.13
2018-01-24T00:40:29.715Z,101587.36
2018-01-24T00:40:53.451Z,101588.70
2018-01-24T00:41:17.190Z,101589.55
2018-01-24T00:41:40.913Z,101589.13
2018-01-24T00:42:04.644Z,101590.88
2018-01-24T00:42:28.392Z,101584.70
2018-01-24T00:42:52.123Z,101592.63
2018-01-24T00:43:15.842Z,101592.13
2018-01-24T00:43:39.567Z,101598.77
2018-01-24T00:44:03.581Z,101591.22
2018-01-24T00:44:27.272Z,101587.66
2018-01-24T00:44:51.043Z,101595.16
2018-01-24T00:45:14.776Z,101594.31
2018-01-24T00:45:38.498Z,101588.52
2018-01-24T00:46:02.506Z,101591.17
2018-01-24T00:46:26.616Z,101589.42
2018-01-24T00:46:50.342Z,101589.84
2018-01-24T00:47:13.818Z,101589.89
2018-01-24T00:47:37.541Z,101591.17
2018-01-24T00:48:01.277Z,101586.77
2018-01-24T00:48:25.003Z,101587.19
2018-01-24T00:48:48.743Z,101588.09
2018-01-24T00:49:12.468Z,101590.75
2018-01-24T00:49:36.561Z,101589.84
2018-01-24T00:50:00.287Z,101592.50
2018-01-24T00:50:24.020Z,101584.95
2018-01-24T00:50:47.748Z,101580.97
2018-01-24T00:51:11.485Z,101584.48
2018-01-24T00:51:35.235Z,101588.95
2018-01-24T00:51:58.956Z,101585.81
2018-01-24T00:52:22.693Z,101582.72
2018-01-24T00:52:46.419Z,101584.00
2018-01-24T00:53:10.436Z,101588.84
2018-01-24T00:53:33.891Z,101588.84
2018-01-24T00:53:57.627Z,101592.84
2018-01-24T00:54:21.376Z,101591.98
2018-01-24T00:54:45.412Z,101589.33
2018-01-24T00:55:08.965Z,101592.45
2018-01-24T00:55:32.707Z,101586.19
2018-01-24T00:55:56.435Z,101583.53
2018-01-24T00:56:20.174Z,101592.33
2018-01-24T00:56:43.979Z,101591.42
2018-01-24T00:57:07.695Z,101589.20
2018-01-24T00:57:31.420Z,101595.80
2018-01-24T00:57:55.170Z,101593.98
2018-01-24T00:58:18.927Z,101591.33
2018-01-24T00:58:42.655Z,101596.17
2018-01-24T00:59:06.375Z,101592.61
2018-01-24T00:59:30.391Z,101595.62
2018-01-24T00:59:54.150Z,101596.95
2018-01-24T01:00:17.863Z,101598.70
2018-01-24T01:00:41.592Z,101592.95
2018-01-24T01:01:05.620Z,101594.66
2018-01-24T01:01:29.339Z,101596.00
2018-01-24T01:01:52.788Z,101598.23
2018-01-24T01:02:16.563Z,101596.42
2018-01-24T01:02:40.287Z,101595.52
2018-01-24T01:03:04.391Z,101593.72
2018-01-24T01:03:28.184Z,101591.48
2018-01-24T01:03:52.207Z,101598.95
2018-01-24T01:04:16.264Z,101600.71
2018-01-24T01:04:40.269Z,101595.39
2018-01-24T01:05:04.297Z,101592.73
2018-01-24T01:05:28.311Z,101596.25
2018-01-24T01:05:51.750Z,101595.34
2018-01-24T01:06:15.481Z,101590.88
2018-01-24T01:06:39.210Z,101591.78
2018-01-24T01:07:03.212Z,101586.89
2018-01-24T01:07:27.227Z,101586.89
2018-01-24T01:07:51.243Z,101593.48
2018-01-24T01:08:15.272Z,101588.17
2018-01-24T01:08:39.082Z,101585.03
2018-01-24T01:09:02.532Z,101592.59
2018-01-24T01:09:26.252Z,101590.35
2018-01-24T01:09:49.993Z,101592.11
2018-01-24T01:10:13.731Z,101587.69
2018-01-24T01:10:37.477Z,101584.13
2018-01-24T01:11:01.268Z,101575.64
2018-01-24T01:11:25.009Z,101584.52
2018-01-24T01:11:48.735Z,101571.23
2018-01-24T01:12:12.467Z,101574.31
2018-01-24T01:12:36.200Z,101577.40
2018-01-24T01:12:59.644Z,101572.50
2018-01-24T01:13:23.372Z,101573.84
2018-01-24T01:13:47.121Z,101578.25
2018-01-24T01:14:11.141Z,101571.12
2018-01-24T01:14:35.149Z,101571.55
2018-01-24T01:14:59.161Z,101576.02
2018-01-24T01:15:22.634Z,101574.69
2018-01-24T01:15:46.403Z,101563.58
2018-01-24T01:16:10.156Z,101563.58
2018-01-24T01:16:33.917Z,101562.67
2018-01-24T01:16:58.139Z,101562.63
2018-01-24T01:17:21.583Z,101572.84
2018-01-24T01:17:45.312Z,101570.60
2018-01-24T01:18:09.047Z,101570.52
2018-01-24T01:18:33.048Z,101566.53
2018-01-24T01:18:57.065Z,101569.14
2018-01-24T01:19:21.125Z,101574.47
2018-01-24T01:19:44.880Z,101575.31
2018-01-24T01:20:08.640Z,101575.31
2018-01-24T01:20:32.381Z,101577.55
2018-01-24T01:20:56.105Z,101571.33
2018-01-24T01:21:19.904Z,101574.41
2018-01-24T01:21:43.928Z,101571.28
2018-01-24T01:22:07.940Z,101571.70
2018-01-24T01:22:31.947Z,101577.45
2018-01-24T01:22:56.015Z,101567.72
2018-01-24T01:23:19.474Z,101580.03
2018-01-24T01:23:43.207Z,101579.61
2018-01-24T01:24:06.943Z,101575.14
2018-01-24T01:24:30.961Z,101575.56
2018-01-24T01:24:54.968Z,101572.43
2018-01-24T01:25:18.981Z,101570.67
2018-01-24T01:25:42.756Z,101579.94
2018-01-24T01:26:06.501Z,101575.95
2018-01-24T01:26:30.244Z,101565.78
2018-01-24T01:26:53.967Z,101575.04
2018-01-24T01:27:17.972Z,101572.33
2018-01-24T01:27:41.507Z,101574.14
2018-01-24T01:28:05.223Z,101573.66
2018-01-24T01:28:28.956Z,101574.14
2018-01-24T01:28:52.450Z,101574.56
2018-01-24T01:29:16.235Z,101563.50
2018-01-24T01:29:39.964Z,101569.67
2018-01-24T01:30:03.708Z,101573.23
2018-01-24T01:30:27.423Z,101566.50
2018-01-24T01:30:51.167Z,101570.92
2018-01-24T01:31:14.896Z,101574.48
2018-01-24T01:31:38.912Z,101560.36
2018-01-24T01:32:02.947Z,101569.67
2018-01-24T01:32:26.791Z,101565.17
2018-01-24T01:32:50.803Z,101566.92
2018-01-24T01:33:14.830Z,101561.18
2018-01-24T01:33:38.845Z,101560.70
2018-01-24T01:34:02.855Z,101560.28
2018-01-24T01:34:26.872Z,101560.70
2018-01-24T01:34:50.935Z,101565.17
2018-01-24T01:35:14.677Z,101560.70
2018-01-24T01:35:38.467Z,101563.36
2018-01-24T01:36:02.216Z,101556.28
2018-01-24T01:36:25.949Z,101556.72
2018-01-24T01:36:49.740Z,101565.13
2018-01-24T01:37:13.757Z,101557.14
2018-01-24T01:37:37.769Z,101561.13
2018-01-24T01:38:01.785Z,101560.70
2018-01-24T01:38:25.766Z,101554.05
2018-01-24T01:38:49.786Z,101558.95
2018-01-24T01:39:13.793Z,101562.94
2018-01-24T01:39:37.823Z,101561.61
2018-01-24T01:40:01.832Z,101557.14
2018-01-24T01:40:25.850Z,101555.34
2018-01-24T01:40:49.868Z,101554.05
2018-01-24T01:41:13.328Z,101557.14
2018-01-24T01:41:37.252Z,101559.37
2018-01-24T01:42:00.990Z,101556.72
2018-01-24T01:42:24.770Z,101562.03
2018-01-24T01:42:48.794Z,101554.95
2018-01-24T01:43:12.645Z,101560.70
2018-01-24T01:43:36.371Z,101561.61
2018-01-24T01:44:00.100Z,101558.95
2018-01-24T01:44:23.647Z,101562.46
2018-01-24T01:44:47.123Z,101559.45
2018-01-24T01:45:10.845Z,101559.37
2018-01-24T01:45:34.656Z,101553.62
2018-01-24T01:45:58.155Z,101553.20
2018-01-24T01:46:21.909Z,101551.87
2018-01-24T01:46:45.459Z,101553.62
2018-01-24T01:47:08.991Z,101552.30
2018-01-24T01:47:32.728Z,101556.72
2018-01-24T01:47:56.403Z,101557.62
2018-01-24T01:48:31.202Z,101556.80
2018-01-24T01:48:54.927Z,101555.52
2018-01-24T01:49:18.483Z,101556.80
2018-01-24T01:49:42.058Z,101551.87
2018-01-24T01:50:05.607Z,101558.13
2018-01-24T01:50:28.871Z,101554.61
2018-01-24T01:50:52.411Z,101559.85
2018-01-24T01:51:16.045Z,101558.52
2018-01-24T01:51:39.628Z,101561.18
2018-01-24T01:52:02.878Z,101558.05
2018-01-24T01:52:26.564Z,101565.17
2018-01-24T01:52:50.722Z,101559.37
2018-01-24T01:53:14.554Z,101561.56
2018-01-24T01:53:38.112Z,101562.03
2018-01-24T01:54:01.653Z,101566.88
2018-01-24T01:54:25.673Z,101569.06
2018-01-24T01:54:49.696Z,101562.89
2018-01-24T01:55:13.739Z,101568.20
2018-01-24T01:55:37.745Z,101565.97
2018-01-24T01:56:01.758Z,101565.50
2018-01-24T01:56:25.207Z,101566.83
2018-01-24T01:56:48.796Z,101565.50
2018-01-24T01:57:12.355Z,101568.59
2018-01-24T01:57:36.085Z,101561.94
2018-01-24T01:57:59.483Z,101563.69
2018-01-24T01:58:23.211Z,101567.25
2018-01-24T01:58:46.977Z,101566.35
2018-01-24T01:59:10.711Z,101564.55
2018-01-24T01:59:34.608Z,101567.69
2018-01-24T01:59:58.456Z,101569.87
2018-01-24T02:00:22.020Z,101572.53
2018-01-24T02:00:45.574Z,101574.77
2018-01-24T02:01:09.057Z,101574.28
2018-01-24T02:01:32.796Z,101570.30
2018-01-24T02:01:56.567Z,101572.45
2018-01-24T02:02:20.006Z,101572.39
2018-01-24T02:02:43.732Z,101573.30
2018-01-24T02:03:07.511Z,101570.59
2018-01-24T02:03:31.434Z,101567.93
2018-01-24T02:03:55.172Z,101565.70
2018-01-24T02:04:18.905Z,101574.96
2018-01-24T02:04:42.647Z,101568.78
2018-01-24T02:05:06.657Z,101570.55
2018-01-24T02:05:30.676Z,101572.73
2018-01-24T02:05:54.702Z,101574.48
2018-01-24T02:06:18.150Z,101571.83
2018-01-24T02:06:41.877Z,101563.84
2018-01-24T02:07:05.634Z,101567.32
2018-01-24T02:07:29.656Z,101567.75
2018-01-24T02:07:53.679Z,101562.85
2018-01-24T02:08:17.127Z,101567.70
2018-01-24T02:08:40.868Z,101562.80
2018-01-24T02:09:03.904Z,101560.57
2018-01-24T02:09:27.643Z,101562.33
2018-01-24T02:09:51.468Z,101562.28
2018-01-24T02:10:15.187Z,101562.28
2018-01-24T02:10:39.015Z,101555.20
2018-01-24T02:11:02.761Z,101562.20
2018-01-24T02:11:26.527Z,101569.75
2018-01-24T02:11:49.967Z,101564.86
2018-01-24T02:12:13.734Z,101567.52
2018-01-24T02:12:37.491Z,101557.73
2018-01-24T02:13:00.939Z,101563.91
2018-01-24T02:13:24.661Z,101556.40
2018-01-24T02:13:48.407Z,101557.68
2018-01-24T02:14:12.136Z,101563.00
2018-01-24T02:14:35.863Z,101555.87
2018-01-24T02:14:59.597Z,101555.87
2018-01-24T02:15:23.617Z,101554.54
2018-01-24T02:15:47.624Z,101554.97
2018-01-24T02:16:10.957Z,101550.50
2018-01-24T02:16:34.704Z,101553.16
2018-01-24T02:16:58.435Z,101547.41
2018-01-24T02:17:22.209Z,101550.50
2018-01-24T02:17:45.957Z,101549.09
2018-01-24T02:18:09.692Z,101552.17
2018-01-24T02:18:33.459Z,101549.94
2018-01-24T02:18:56.898Z,101552.13
2018-01-24T02:19:20.627Z,101555.69
2018-01-24T02:19:44.403Z,101550.80
2018-01-24T02:20:08.131Z,101552.08
2018-01-24T02:20:31.696Z,101554.69
2018-01-24T02:20:55.477Z,101554.69
2018-01-24T02:21:19.488Z,101549.76
2018-01-24T02:21:43.523Z,101548.43
2018-01-24T02:22:07.567Z,101549.76
2018-01-24T02:22:31.597Z,101547.48
2018-01-24T02:22:55.064Z,101553.66
2018-01-24T02:23:18.815Z,101549.23
2018-01-24T02:23:42.568Z,101547.85
2018-01-24T02:24:06.212Z,101547.85
2018-01-24T02:24:29.928Z,101550.94
2018-01-24T02:24:53.655Z,101552.22
2018-01-24T02:25:17.203Z,101552.22
2018-01-24T02:25:40.736Z,101549.56
2018-01-24T02:26:04.471Z,101545.96
2018-01-24T02:26:28.520Z,101551.71
2018-01-24T02:26:52.527Z,101557.03
2018-01-24T02:27:16.551Z,101547.30
2018-01-24T02:27:40.590Z,101551.66
2018-01-24T02:28:04.424Z,101547.67
2018-01-24T02:28:27.935Z,101554.75
2018-01-24T02:28:51.660Z,101553.84
2018-01-24T02:29:15.395Z,101549.00
2018-01-24T02:29:38.892Z,101553.89
2018-01-24T02:30:02.640Z,101549.91
2018-01-24T02:30:26.378Z,101547.67
2018-01-24T02:30:49.828Z,101545.01
2018-01-24T02:31:13.557Z,101549.43
2018-01-24T02:31:37.013Z,101548.09
2018-01-24T02:32:00.653Z,101546.34
2018-01-24T02:32:24.473Z,101547.19
2018-01-24T02:32:48.520Z,101548.47
2018-01-24T02:33:12.535Z,101550.70
2018-01-24T02:33:36.601Z,101553.78
2018-01-24T02:34:00.338Z,101544.91
2018-01-24T02:34:24.060Z,101545.34
2018-01-24T02:34:47.789Z,101550.66
2018-01-24T02:35:11.545Z,101551.94
2018-01-24T02:35:35.002Z,101548.85
2018-01-24T02:35:58.738Z,101544.81
2018-01-24T02:36:22.525Z,101547.05
2018-01-24T02:36:46.407Z,101548.37
2018-01-24T02:37:10.416Z,101549.18
2018-01-24T02:37:34.426Z,101547.42
2018-01-24T02:37:57.798Z,101549.23
2018-01-24T02:38:32.676Z,101550.08
2018-01-24T02:39:07.435Z,101543.00
2018-01-24T02:39:31.443Z,101546.04
2018-01-24T02:39:55.452Z,101544.28
2018-01-24T02:40:19.463Z,101542.95
2018-01-24T02:40:43.474Z,101544.28
2018-01-24T02:41:06.923Z,101545.19
2018-01-24T02:41:30.557Z,101549.60
2018-01-24T02:41:54.298Z,101543.85
2018-01-24T02:42:17.740Z,101545.61
2018-01-24T02:42:41.465Z,101546.52
2018-01-24T02:43:04.963Z,101547.80
2018-01-24T02:43:28.692Z,101543.38
2018-01-24T02:43:52.411Z,101542.05
2018-01-24T02:44:16.441Z,101545.14
2018-01-24T02:44:39.889Z,101545.56
2018-01-24T02:45:03.622Z,101543.72
2018-01-24T02:45:27.357Z,101544.23
2018-01-24T02:45:51.368Z,101545.98
2018-01-24T02:46:15.428Z,101541.14
2018-01-24T02:46:38.933Z,101546.89
2018-01-24T02:47:02.870Z,101536.59
2018-01-24T02:47:26.615Z,101538.34
2018-01-24T02:47:50.344Z,101539.25
2018-01-24T02:48:14.420Z,101539.68
2018-01-24T02:48:38.176Z,101537.02
2018-01-24T02:49:01.903Z,101538.34
2018-01-24T02:49:25.668Z,101540.10
2018-01-24T02:49:49.406Z,101536.54
2018-01-24T02:50:13.140Z,101537.39
2018-01-24T02:50:36.864Z,101536.97
2018-01-24T02:51:00.595Z,101534.30
2018-01-24T02:51:24.425Z,101536.06
2018-01-24T02:51:48.159Z,101536.06
2018-01-24T02:52:11.888Z,101533.40
2018-01-24T02:52:35.649Z,101530.69
2018-01-24T02:52:59.421Z,101532.02
2018-01-24T02:53:23.203Z,101536.44
2018-01-24T02:53:46.652Z,101530.21
2018-01-24T02:54:10.389Z,101534.59
2018-01-24T02:54:34.141Z,101530.12
2018-01-24T02:54:57.608Z,101528.80
2018-01-24T02:55:21.349Z,101530.55
2018-01-24T02:55:45.112Z,101532.31
2018-01-24T02:56:08.887Z,101528.32
2018-01-24T02:56:32.633Z,101529.60
2018-01-24T02:56:56.412Z,101531.41
2018-01-24T02:57:20.147Z,101534.02
2018-01-24T02:57:43.631Z,101523.42
2018-01-24T02:58:07.362Z,101537.53
2018-01-24T02:58:31.135Z,101531.36
2018-01-24T02:58:54.600Z,101520.28
2018-01-24T02:59:18.325Z,101527.80
2018-01-24T02:59:42.078Z,101525.61
2018-01-24T03:00:05.154Z,101523.80
2018-01-24T03:00:29.181Z,101529.60
2018-01-24T03:00:53.228Z,101526.41
2018-01-24T03:01:17.245Z,101525.13
2018-01-24T03:01:41.327Z,101525.13
2018-01-24T03:02:04.728Z,101525.13
2018-01-24T03:02:28.461Z,101525.56
2018-01-24T03:02:52.214Z,101526.89
2018-01-24T03:03:16.231Z,101524.66
2018-01-24T03:03:40.305Z,101529.89
2018-01-24T03:04:03.853Z,101521.48
2018-01-24T03:04:27.593Z,101524.66
2018-01-24T03:04:51.311Z,101525.08
2018-01-24T03:05:15.067Z,101532.50
2018-01-24T03:05:38.793Z,101520.58
2018-01-24T03:06:02.530Z,101524.09
2018-01-24T03:06:26.289Z,101523.23
2018-01-24T03:06:50.033Z,101516.11
2018-01-24T03:07:13.776Z,101523.23
2018-01-24T03:07:37.516Z,101526.75
2018-01-24T03:08:00.911Z,101524.95
2018-01-24T03:08:24.660Z,101518.77
2018-01-24T03:08:48.417Z,101522.34
2018-01-24T03:09:12.141Z,101520.53
2018-01-24T03:09:36.155Z,101524.52
2018-01-24T03:10:00.175Z,101522.71
2018-01-24T03:10:24.028Z,101521.86
2018-01-24T03:10:47.756Z,101517.87
2018-01-24T03:11:11.487Z,101520.05
2018-01-24T03:11:35.227Z,101516.48
2018-01-24T03:11:58.729Z,101517.81
2018-01-24T03:12:22.467Z,101520.00
2018-01-24T03:12:46.202Z,101520.00
2018-01-24T03:13:10.160Z,101516.43
2018-01-24T03:13:34.205Z,101521.33
2018-01-24T03:13:58.287Z,101518.19
2018-01-24T03:14:22.035Z,101514.20
2018-01-24T03:14:45.485Z,101522.19
2018-01-24T03:15:09.214Z,101520.34
2018-01-24T03:15:33.231Z,101519.44
2018-01-24T03:15:56.671Z,101522.09
2018-01-24T03:16:20.410Z,101513.69
2018-01-24T03:16:44.139Z,101517.63
2018-01-24T03:17:08.146Z,101516.77
2018-01-24T03:17:32.160Z,101521.20
2018-01-24T03:17:56.165Z,101518.11
2018-01-24T03:18:20.184Z,101521.20
2018-01-24T03:18:44.192Z,101519.86
2018-01-24T03:19:08.219Z,101520.29
2018-01-24T03:19:31.960Z,101522.95
2018-01-24T03:19:55.675Z,101518.53
2018-01-24T03:20:19.412Z,101517.63
2018-01-24T03:20:43.136Z,101526.89
2018-01-24T03:21:07.159Z,101519.81
2018-01-24T03:21:31.178Z,101522.91
2018-01-24T03:21:54.631Z,101516.25
2018-01-24T03:22:18.379Z,101524.66
2018-01-24T03:22:42.117Z,101523.33
2018-01-24T03:23:06.160Z,101520.67
2018-01-24T03:23:30.172Z,101518.00
2018-01-24T03:23:53.612Z,101522.84
2018-01-24T03:24:17.374Z,101518.86
2018-01-24T03:24:41.107Z,101521.52
2018-01-24T03:25:04.788Z,101520.61
2018-01-24T03:25:28.524Z,101523.70
2018-01-24T03:25:52.261Z,101519.28
2018-01-24T03:26:16.004Z,101520.14
2018-01-24T03:26:39.440Z,101522.84
2018-01-24T03:27:03.235Z,101525.94
2018-01-24T03:27:26.965Z,101521.05
2018-01-24T03:27:50.512Z,101522.29
2018-01-24T03:28:14.245Z,101525.86
2018-01-24T03:28:38.076Z,101532.94
2018-01-24T03:29:02.095Z,101527.13
2018-01-24T03:29:26.128Z,101527.56
2018-01-24T03:29:50.135Z,101524.91
2018-01-24T03:30:14.172Z,101527.56
2018-01-24T03:30:37.933Z,101526.18
2018-01-24T03:31:01.670Z,101521.28
2018-01-24T03:31:25.399Z,101522.61
2018-01-24T03:31:49.183Z,101531.50
2018-01-24T03:32:13.003Z,101527.46
2018-01-24T03:32:37.071Z,101523.47
2018-01-24T03:33:01.097Z,101526.56
2018-01-24T03:33:25.147Z,101522.05
2018-01-24T03:33:48.894Z,101521.15
2018-01-24T03:34:12.648Z,101517.23
2018-01-24T03:34:36.416Z,101521.15
2018-01-24T03:35:00.162Z,101522.05
2018-01-24T03:35:23.923Z,101519.77
2018-01-24T03:35:47.648Z,101521.52
2018-01-24T03:36:11.395Z,101510.02
2018-01-24T03:36:35.152Z,101512.69
2018-01-24T03:36:58.891Z,101517.53
2018-01-24T03:37:22.611Z,101517.11
2018-01-24T03:37:46.354Z,101518.38
2018-01-24T03:38:10.126Z,101510.45
2018-01-24T03:38:33.528Z,101509.97
2018-01-24T03:38:57.266Z,101513.11
2018-01-24T03:39:21.003Z,101509.55
2018-01-24T03:39:45.035Z,101510.88
2018-01-24T03:40:09.079Z,101505.08
2018-01-24T03:40:33.084Z,101518.81
2018-01-24T03:40:56.551Z,101510.39
2018-01-24T03:41:20.276Z,101504.64
2018-01-24T03:41:44.018Z,101510.88
2018-01-24T03:42:08.056Z,101503.31
2018-01-24T03:42:32.124Z,101504.64
2018-01-24T03:42:55.877Z,101501.56
2018-01-24T03:43:19.608Z,101504.22
2018-01-24T03:43:43.414Z,101509.97
2018-01-24T03:44:07.162Z,101504.59
2018-01-24T03:44:30.922Z,101504.17
2018-01-24T03:44:54.381Z,101507.31
2018-01-24T03:45:18.106Z,101508.16
2018-01-24T03:45:41.862Z,101505.08
2018-01-24T03:46:05.608Z,101506.35
2018-01-24T03:46:29.325Z,101506.35
2018-01-24T03:46:53.053Z,101505.92
2018-01-24T03:47:17.063Z,101513.44
2018-01-24T03:47:41.096Z,101504.59
2018-01-24T03:48:04.541Z,101509.49
2018-01-24T03:48:28.263Z,101501.94
2018-01-24T03:48:52.027Z,101504.55
2018-01-24T03:49:16.033Z,101508.45
2018-01-24T03:49:40.035Z,101500.55
2018-01-24T03:50:04.068Z,101506.27
2018-01-24T03:50:27.502Z,101507.13
2018-01-24T03:50:51.225Z,101508.88
2018-01-24T03:51:14.943Z,101510.27
2018-01-24T03:51:38.964Z,101506.27
2018-01-24T03:52:02.975Z,101510.69
2018-01-24T03:52:27.001Z,101505.36
2018-01-24T03:52:51.026Z,101499.61
2018-01-24T03:53:15.037Z,101506.70
2018-01-24T03:53:39.091Z,101505.36
2018-01-24T03:54:02.840Z,101506.70
2018-01-24T03:54:26.569Z,101506.64
2018-01-24T03:54:50.312Z,101505.80
2018-01-24T03:55:14.068Z,101504.88
2018-01-24T03:55:37.815Z,101508.88
2018-01-24T03:56:01.544Z,101504.41
2018-01-24T03:56:25.273Z,101503.50
2018-01-24T03:56:49.114Z,101503.93
2018-01-24T03:57:12.900Z,101507.92
2018-01-24T03:57:36.353Z,101507.92
2018-01-24T03:58:00.082Z,101507.07
2018-01-24T03:58:23.815Z,101501.70
2018-01-24T03:58:47.559Z,101506.97
2018-01-24T03:59:11.280Z,101507.87
2018-01-24T03:59:35.092Z,101503.41
2018-01-24T03:59:58.885Z,101505.55
2018-01-24T04:00:22.943Z,101503.41
2018-01-24T04:00:46.968Z,101509.62
2018-01-24T04:01:10.418Z,101508.73
2018-01-24T04:01:34.143Z,101508.64
2018-01-24T04:01:57.887Z,101512.63
2018-01-24T04:02:21.919Z,101501.98
2018-01-24T04:02:45.961Z,101507.69
2018-01-24T04:03:09.428Z,101498.84
2018-01-24T04:03:33.164Z,101505.88
2018-01-24T04:03:56.936Z,101501.94
2018-01-24T04:04:20.938Z,101503.64
2018-01-24T04:04:44.950Z,101505.39
2018-01-24T04:05:08.966Z,101501.83
2018-01-24T04:05:32.943Z,101500.98
2018-01-24T04:05:56.963Z,101499.17
2018-01-24T04:06:20.454Z,101503.59
2018-01-24T04:06:44.113Z,101502.66
2018-01-24T04:07:07.853Z,101504.49
2018-01-24T04:07:31.862Z,101502.66
2018-01-24T04:07:55.880Z,101500.07
2018-01-24T04:08:19.891Z,101501.83
2018-01-24T04:08:43.906Z,101504.06
2018-01-24T04:09:07.959Z,101507.16
2018-01-24T04:09:32.000Z,101506.73
2018-01-24T04:09:55.758Z,101505.83
2018-01-24T04:10:19.143Z,101512.48
2018-01-24T04:10:42.908Z,101502.25
2018-01-24T04:11:06.931Z,101499.59
2018-01-24T04:11:30.666Z,101507.58
2018-01-24T04:11:54.385Z,101505.83
2018-01-24T04:12:18.111Z,101505.39
2018-01-24T04:12:41.881Z,101504.06
2018-01-24T04:13:05.888Z,101500.98
2018-01-24T04:13:29.927Z,101500.92
2018-01-24T04:13:53.940Z,101505.31
2018-01-24T04:14:17.369Z,101506.25
2018-01-24T04:14:41.099Z,101512.48
2018-01-24T04:15:04.509Z,101506.64
2018-01-24T04:15:28.264Z,101508.91
2018-01-24T04:15:52.024Z,101507.16
2018-01-24T04:16:15.760Z,101505.73
2018-01-24T04:16:39.226Z,101503.08
2018-01-24T04:17:02.987Z,101506.17
2018-01-24T04:17:26.735Z,101502.12
2018-01-24T04:17:50.172Z,101510.53
2018-01-24T04:18:13.892Z,101513.62
2018-01-24T04:18:37.348Z,101506.55
2018-01-24T04:19:00.894Z,101506.55
2018-01-24T04:19:24.323Z,101502.55
2018-01-24T04:19:48.059Z,101509.62
2018-01-24T04:20:11.810Z,101503.83
2018-01-24T04:20:35.857Z,101510.91
2018-01-24T04:20:59.925Z,101506.48
2018-01-24T04:21:23.711Z,101508.67
2018-01-24T04:21:47.151Z,101509.58
2018-01-24T04:22:10.888Z,101502.02
2018-01-24T04:22:34.405Z,101503.34
2018-01-24T04:22:58.188Z,101499.41
2018-01-24T04:23:21.927Z,101500.69
2018-01-24T04:23:45.660Z,101504.59
2018-01-24T04:24:09.406Z,101502.84
2018-01-24T04:24:33.151Z,101505.92
2018-01-24T04:24:56.903Z,101507.77
2018-01-24T04:25:20.655Z,101502.45
2018-01-24T04:25:44.389Z,101501.94
2018-01-24T04:26:08.152Z,101504.12
2018-01-24T04:26:31.573Z,101501.59
2018-01-24T04:26:55.307Z,101504.59
2018-01-24T04:27:19.039Z,101502.84
2018-01-24T04:27:42.767Z,101501.11
2018-01-24T04:28:06.773Z,101498.84
2018-01-24T04:28:30.794Z,101496.18
2018-01-24T04:28:54.797Z,101496.61
2018-01-24T04:29:18.800Z,101497.46
2018-01-24T04:29:42.811Z,101499.70
2018-01-24T04:30:06.851Z,101502.78
2018-01-24T04:30:30.583Z,101498.80
2018-01-24T04:30:54.356Z,101499.64
2018-01-24T04:31:18.104Z,101503.64
2018-01-24T04:31:41.842Z,101505.39
2018-01-24T04:32:05.607Z,101495.60
2018-01-24T04:32:29.328Z,101496.03
2018-01-24T04:32:53.067Z,101500.02
2018-01-24T04:33:16.789Z,101495.17
2018-01-24T04:33:40.237Z,101501.83
2018-01-24T04:34:04.044Z,101500.45
2018-01-24T04:34:27.775Z,101498.69
2018-01-24T04:34:51.226Z,101498.69